createdAt,value
2018-12-14T00:00:47.271Z,1.45
2018-12-14T00:06:00.831Z,1.46
2018-12-14T00:11:14.533Z,1.58
2018-12-14T00:16:31.280Z,1.62
2018-12-14T00:21:39.857Z,1.46
2018-12-14T00:26:50.574Z,1.34
2018-12-14T00:32:01.220Z,1.32
2018-12-14T00:37:10.188Z,1.29
2018-12-14T00:42:22.787Z,1.20
2018-12-14T00:47:34.527Z,1.11
2018-12-14T00:53:08.014Z,1.13
2018-12-14T00:58:20.624Z,1.06
2018-12-14T01:03:28.528Z,1.00
2018-12-14T01:08:36.829Z,0.97
2018-12-14T01:13:48.628Z,0.94
2018-12-14T01:19:02.313Z,0.88
2018-12-14T01:24:16.064Z,0.78
2018-12-14T01:29:28.806Z,0.77
2018-12-14T01:34:39.656Z,0.70
2018-12-14T01:39:51.460Z,0.67
2018-12-14T01:45:01.531Z,0.65
2018-12-14T01:50:13.875Z,0.64
2018-12-14T01:55:27.521Z,0.63
2018-12-14T02:00:36.689Z,0.60
2018-12-14T02:05:45.952Z,0.55
2018-12-14T02:10:55.064Z,0.60
2018-12-14T02:16:02.870Z,0.60
2018-12-14T02:21:15.175Z,0.59
2018-12-14T02:26:28.076Z,0.65
2018-12-14T02:31:39.457Z,0.64
2018-12-14T02:36:52.935Z,0.59
2018-12-14T02:42:07.454Z,0.60
2018-12-14T02:47:20.011Z,0.61
2018-12-14T02:52:31.845Z,0.65
2018-12-14T02:57:45.429Z,0.72
2018-12-14T03:02:57.464Z,0.68
2018-12-14T03:08:10.184Z,0.69
2018-12-14T03:13:17.799Z,0.68
2018-12-14T03:18:26.770Z,0.67
2018-12-14T03:23:41.395Z,0.66
2018-12-14T03:28:51.505Z,0.73
2018-12-14T03:34:03.437Z,0.64
2018-12-14T03:39:13.800Z,0.64
2018-12-14T03:44:31.958Z,0.66
2018-12-14T03:49:43.828Z,0.70
2018-12-14T03:54:54.161Z,0.62
2018-12-14T04:00:06.036Z,0.68
2018-12-14T04:05:16.040Z,0.62
2018-12-14T04:10:29.287Z,0.59
2018-12-14T04:15:37.070Z,0.58
2018-12-14T04:20:50.567Z,0.64
2018-12-14T04:26:06.044Z,0.69
2018-12-14T04:31:17.948Z,0.66
2018-12-14T04:36:28.064Z,0.73
2018-12-14T04:41:40.845Z,0.57
2018-12-14T04:46:51.681Z,0.65
2018-12-14T04:52:01.063Z,0.60
2018-12-14T05:03:28.045Z,0.71
2018-12-14T05:08:38.667Z,0.55
2018-12-14T05:13:50.441Z,0.51
2018-12-14T05:18:58.772Z,0.54
2018-12-14T05:24:08.261Z,0.64
2018-12-14T05:29:16.049Z,0.59
2018-12-14T05:34:30.445Z,0.61
2018-12-14T05:39:40.367Z,0.57
2018-12-14T05:44:57.485Z,0.60
2018-12-14T05:50:06.377Z,0.58
2018-12-14T05:55:16.250Z,0.58
2018-12-14T06:00:25.697Z,0.48
2018-12-14T06:05:35.752Z,0.39
2018-12-14T06:10:46.832Z,0.45
2018-12-14T06:15:56.743Z,0.40
2018-12-14T06:21:07.427Z,0.43
2018-12-14T06:26:16.045Z,0.44
2018-12-14T06:31:31.589Z,0.40
2018-12-14T06:36:39.802Z,0.37
2018-12-14T06:41:47.188Z,0.49
2018-12-14T06:46:54.572Z,0.40
2018-12-14T06:52:07.308Z,0.37
2018-12-14T06:57:27.889Z,0.39
2018-12-14T07:02:41.511Z,0.38
2018-12-14T07:07:48.316Z,0.32
2018-12-14T07:13:01.800Z,0.29
2018-12-14T07:18:12.742Z,0.27
2018-12-14T07:23:21.776Z,0.33
2018-12-14T07:28:31.097Z,0.25
2018-12-14T07:33:43.692Z,0.25
2018-12-14T07:38:54.722Z,0.28
2018-12-14T07:44:05.512Z,0.29
2018-12-14T07:49:18.147Z,0.19
2018-12-14T07:54:30.825Z,0.22
2018-12-14T07:59:40.022Z,0.29
2018-12-14T08:04:46.040Z,0.26
2018-12-14T08:09:57.391Z,0.19
2018-12-14T08:15:11.407Z,0.19
2018-12-14T08:20:21.863Z,0.20
2018-12-14T08:25:31.779Z,0.27
2018-12-14T08:30:44.325Z,0.28
2018-12-14T08:35:58.744Z,0.34
2018-12-14T08:41:07.532Z,0.38
2018-12-14T08:46:22.990Z,0.44
2018-12-14T08:51:29.522Z,0.42
2018-12-14T08:56:42.400Z,0.50
2018-12-14T09:01:52.740Z,0.53
2018-12-14T09:07:05.254Z,0.55
2018-12-14T09:12:15.405Z,0.58
2018-12-14T09:17:23.688Z,0.75
2018-12-14T09:22:35.627Z,0.71
2018-12-14T09:27:42.205Z,0.91
2018-12-14T09:32:56.911Z,0.81
2018-12-14T09:38:11.840Z,0.82
2018-12-14T09:43:23.573Z,0.77
2018-12-14T09:48:34.222Z,0.77
2018-12-14T09:53:41.354Z,1.10
2018-12-14T09:58:51.292Z,1.22
2018-12-14T10:04:04.011Z,1.80
2018-12-14T10:09:16.811Z,1.44
2018-12-14T10:14:29.578Z,2.44
2018-12-14T10:19:43.251Z,2.41
2018-12-14T10:24:54.180Z,3.08
2018-12-14T10:30:08.530Z,3.99
2018-12-14T10:35:25.833Z,4.36
2018-12-14T10:40:41.261Z,4.66
2018-12-14T10:45:54.915Z,4.14
2018-12-14T10:51:09.379Z,4.48
2018-12-14T10:56:19.423Z,5.42
2018-12-14T11:01:49.076Z,4.70
2018-12-14T11:06:58.581Z,6.04
2018-12-14T11:12:12.960Z,6.01
2018-12-14T11:17:25.544Z,7.91
2018-12-14T11:22:36.304Z,6.88
2018-12-14T11:27:46.180Z,7.26
2018-12-14T11:32:52.993Z,8.23
2018-12-14T11:38:01.341Z,7.79
2018-12-14T11:43:12.161Z,7.00
2018-12-14T11:48:20.420Z,6.62
2018-12-14T11:53:34.770Z,7.34
2018-12-14T11:58:43.833Z,7.98
2018-12-14T12:03:52.978Z,7.28
2018-12-14T12:09:02.516Z,5.74
2018-12-14T12:14:12.397Z,4.55
2018-12-14T12:19:24.972Z,4.49
2018-12-14T12:24:40.235Z,4.18
2018-12-14T12:29:53.956Z,3.80
2018-12-14T12:35:10.337Z,4.13
2018-12-14T12:40:23.821Z,3.76
2018-12-14T12:45:31.878Z,4.24
2018-12-14T12:50:47.338Z,4.35
2018-12-14T12:56:00.045Z,3.53
2018-12-14T13:01:13.721Z,3.63
2018-12-14T13:06:22.840Z,3.60
2018-12-14T13:11:30.801Z,3.26
2018-12-14T13:16:40.728Z,3.69
2018-12-14T13:21:52.422Z,3.97
2018-12-14T13:27:04.143Z,3.60
2018-12-14T13:32:15.843Z,3.38
2018-12-14T13:37:27.591Z,3.53
2018-12-14T13:42:44.785Z,3.62
2018-12-14T13:47:55.577Z,3.86
2018-12-14T13:53:10.139Z,3.60
2018-12-14T13:58:22.823Z,3.44
2018-12-14T14:03:37.447Z,3.45
2018-12-14T14:08:52.870Z,3.06
2018-12-14T14:14:04.581Z,3.33
2018-12-14T14:19:16.258Z,3.35
2018-12-14T14:24:26.411Z,3.21
2018-12-14T14:29:33.698Z,3.42
2018-12-14T14:34:47.418Z,3.13
2018-12-14T14:39:56.477Z,3.14
2018-12-14T14:45:10.026Z,3.06
2018-12-14T14:50:21.049Z,3.11
2018-12-14T14:55:30.501Z,3.13
2018-12-14T15:00:43.173Z,2.91
2018-12-14T15:05:51.696Z,3.09
2018-12-14T15:11:03.172Z,3.23
2018-12-14T15:16:16.676Z,3.05
2018-12-14T15:21:27.753Z,3.14
2018-12-14T15:26:36.207Z,3.03
2018-12-14T15:31:47.536Z,2.91
2018-12-14T15:37:02.903Z,2.88
2018-12-14T15:42:10.974Z,2.94
2018-12-14T15:47:20.908Z,2.96
2018-12-14T15:52:28.669Z,2.96
2018-12-14T15:57:36.085Z,2.79
2018-12-14T16:02:49.718Z,2.95
2018-12-14T16:07:59.753Z,2.85
2018-12-14T16:13:15.187Z,2.97
2018-12-14T16:18:29.008Z,2.82
2018-12-14T16:23:37.985Z,2.83
2018-12-14T16:28:49.866Z,2.56
2018-12-14T16:34:00.699Z,2.58
2018-12-14T16:39:10.052Z,2.72
2018-12-14T16:44:19.137Z,3.06
2018-12-14T16:49:28.072Z,2.85
2018-12-14T16:54:37.990Z,2.81
2018-12-14T16:59:48.996Z,2.96
2018-12-14T17:04:56.799Z,2.91
2018-12-14T17:10:08.392Z,3.01
2018-12-14T17:15:23.849Z,2.86
2018-12-14T17:20:34.886Z,2.91
2018-12-14T17:25:45.907Z,3.04
2018-12-14T17:30:59.434Z,2.80
2018-12-14T17:36:12.218Z,2.70
2018-12-14T17:41:23.568Z,2.85
2018-12-14T17:46:37.290Z,3.00
2018-12-14T17:51:47.236Z,2.74
2018-12-14T17:57:04.454Z,2.71
2018-12-14T18:02:16.233Z,2.76
2018-12-14T18:07:27.913Z,2.75
2018-12-14T18:12:39.952Z,2.67
2018-12-14T18:17:48.430Z,2.74
2018-12-14T18:22:59.849Z,2.88
2018-12-14T18:28:13.483Z,2.68
2018-12-14T18:33:21.725Z,2.50
2018-12-14T18:38:30.663Z,2.80
2018-12-14T18:43:39.310Z,2.87
2018-12-14T18:48:50.981Z,2.55
2018-12-14T18:54:03.566Z,2.55
2018-12-14T18:59:15.783Z,2.68
2018-12-14T19:04:26.571Z,2.65
2018-12-14T19:09:37.914Z,2.64
2018-12-14T19:14:51.564Z,2.57
2018-12-14T19:20:00.584Z,2.84
2018-12-14T19:25:11.203Z,2.62
2018-12-14T19:30:23.912Z,2.57
2018-12-14T19:35:35.614Z,2.49
2018-12-14T19:40:47.684Z,2.65
2018-12-14T19:45:56.581Z,2.41
2018-12-14T19:51:04.342Z,2.47
2018-12-14T19:56:16.999Z,2.54
2018-12-14T20:01:27.053Z,2.46
2018-12-14T20:06:36.434Z,2.66
2018-12-14T20:11:49.958Z,2.81
2018-12-14T20:17:03.492Z,2.64
2018-12-14T20:22:13.008Z,2.23
2018-12-14T20:27:24.297Z,2.25
2018-12-14T20:32:33.259Z,2.12
2018-12-14T20:37:42.358Z,2.18
2018-12-14T20:42:57.944Z,1.99
2018-12-14T20:48:08.742Z,2.05
2018-12-14T20:53:20.412Z,2.31
2018-12-14T20:58:31.401Z,2.43
2018-12-14T21:03:41.262Z,2.45
2018-12-14T21:08:51.972Z,2.27
2018-12-14T21:14:03.747Z,1.97
2018-12-14T21:19:12.670Z,2.07
2018-12-14T21:24:23.905Z,2.28
2018-12-14T21:29:36.398Z,2.00
2018-12-14T21:34:48.262Z,1.79
2018-12-14T21:39:55.981Z,1.97
2018-12-14T21:45:09.508Z,1.98
2018-12-14T21:50:21.226Z,1.98
2018-12-14T21:55:32.900Z,2.01
2018-12-14T22:00:42.083Z,2.21
2018-12-14T22:05:56.526Z,2.18
2018-12-14T22:11:05.596Z,2.19
2018-12-14T22:16:14.048Z,2.13
2018-12-14T22:21:25.753Z,2.33
2018-12-14T22:26:35.190Z,2.34
2018-12-14T22:31:42.491Z,2.26
2018-12-14T22:36:52.256Z,2.39
2018-12-14T22:42:03.142Z,2.27
2018-12-14T22:47:14.028Z,2.20
2018-12-14T22:52:25.668Z,2.24
2018-12-14T22:57:36.479Z,2.31
2018-12-14T23:02:50.182Z,2.12
2018-12-14T23:07:58.310Z,2.29
2018-12-14T23:13:09.991Z,2.30
2018-12-14T23:18:21.097Z,2.17
2018-12-14T23:23:33.608Z,2.07
2018-12-14T23:28:44.293Z,2.25
2018-12-14T23:33:55.986Z,2.08
2018-12-14T23:39:06.614Z,2.15
2018-12-14T23:44:18.330Z,2.05
2018-12-14T23:49:29.202Z,2.08
2018-12-14T23:54:40.094Z,2.20
2018-12-14T23:59:52.711Z,2.21
